< < Back
Terminal Aerodrome Forecast


Current Version              Previous Versions:   1  2  3  4  5  6  7  8  9  

Terminal Aerodrome Forecast

707
FTUS42 KTAE 301100
TAFTLH
TAF
KTLH 301120Z 3012/3112 01005KT P6SM SCT025 SCT100
      TEMPO 3012/3014 BKN025
     FM301400 36007KT P6SM SCT250
     FM310200 31003KT P6SM SKC=

Latest METAR

233
SAUS80 KWBC 301300
MTRTLH
METAR KTLH 301253Z 02004KT 10SM FEW025 SCT100 17/08 A3002 RMK AO2 SLP165
T01720083


USA.gov is the U.S. government's official web portal to all federal, state and local government web resources and services.